createdAt,value
2022-11-25T00:01:55.199Z,9.10
2022-11-25T00:05:10.204Z,8.40
2022-11-25T00:08:24.098Z,8.77
2022-11-25T00:11:42.138Z,8.63
2022-11-25T00:14:44.151Z,9.73
2022-11-25T00:18:02.370Z,9.30
2022-11-25T00:21:19.331Z,9.23
2022-11-25T00:24:34.445Z,8.50
2022-11-25T00:28:03.459Z,8.45
2022-11-25T00:31:13.727Z,8.77
2022-11-25T00:34:28.158Z,8.87
2022-11-25T00:37:42.658Z,9.90
2022-11-25T00:41:17.224Z,9.75
2022-11-25T00:44:34.854Z,9.07
2022-11-25T00:47:43.171Z,9.63
2022-11-25T00:51:25.401Z,9.13
2022-11-25T00:54:41.293Z,8.73
2022-11-25T00:57:56.233Z,9.13
2022-11-25T01:01:08.309Z,9.10
2022-11-25T01:04:17.525Z,10.35
2022-11-25T01:07:26.293Z,9.70
2022-11-25T01:10:41.230Z,10.35
2022-11-25T01:13:43.927Z,10.55
2022-11-25T01:20:17.570Z,10.30
2022-11-25T01:23:35.175Z,10.20
2022-11-25T01:26:36.883Z,9.32
2022-11-25T01:29:57.741Z,10.32
2022-11-25T01:33:09.194Z,9.18
2022-11-25T01:36:18.798Z,9.63
2022-11-25T01:39:33.293Z,9.37
2022-11-25T01:42:51.147Z,8.23
2022-11-25T01:46:18.500Z,9.70
2022-11-25T01:49:47.268Z,9.60
2022-11-25T01:53:13.861Z,9.90
2022-11-25T01:56:25.190Z,9.13
2022-11-25T01:59:46.217Z,10.15
2022-11-25T02:02:52.158Z,9.75
2022-11-25T02:09:57.221Z,9.70
2022-11-25T02:13:05.869Z,10.00
2022-11-25T02:16:14.258Z,9.40
2022-11-25T02:19:36.169Z,10.05
2022-11-25T02:23:06.170Z,8.90
2022-11-25T02:26:21.215Z,9.73
2022-11-25T02:29:37.179Z,10.00
2022-11-25T02:32:47.521Z,10.10
2022-11-25T02:39:06.298Z,10.38
2022-11-25T02:42:17.298Z,10.13
2022-11-25T02:45:37.312Z,10.00
2022-11-25T02:52:18.907Z,9.82
2022-11-25T02:55:36.173Z,10.40
2022-11-25T02:58:44.942Z,10.23
2022-11-25T03:01:56.325Z,9.93
2022-11-25T03:05:10.417Z,9.80
2022-11-25T03:08:19.245Z,10.38
2022-11-25T03:11:38.025Z,9.98
2022-11-25T03:14:46.175Z,8.80
2022-11-25T03:18:01.198Z,9.50
2022-11-25T03:21:10.283Z,9.70
2022-11-25T03:24:19.109Z,9.60
2022-11-25T03:27:30.263Z,9.35
2022-11-25T03:30:47.207Z,9.38
2022-11-25T03:33:48.916Z,8.83
2022-11-25T03:37:03.277Z,9.77
2022-11-25T03:40:12.173Z,9.30
2022-11-25T03:43:27.297Z,9.38
2022-11-25T03:46:35.429Z,8.55
2022-11-25T03:49:51.294Z,8.80
2022-11-25T03:52:59.185Z,9.55
2022-11-25T03:56:14.200Z,9.82
2022-11-25T03:59:15.868Z,8.07
2022-11-25T04:02:30.657Z,9.38
2022-11-25T04:05:34.534Z,9.23
2022-11-25T04:08:49.198Z,8.95
2022-11-25T04:11:58.193Z,8.88
2022-11-25T04:15:14.389Z,8.90
2022-11-25T04:18:23.297Z,8.60
2022-11-25T04:21:39.236Z,9.23
2022-11-25T04:24:47.826Z,8.95
2022-11-25T04:27:56.198Z,8.00
2022-11-25T04:31:07.413Z,8.50
2022-11-25T04:34:15.335Z,8.68
2022-11-25T04:37:25.042Z,8.93
2022-11-25T04:40:38.169Z,8.52
2022-11-25T04:43:53.235Z,9.60
2022-11-25T04:47:01.887Z,8.82
2022-11-25T04:50:11.209Z,8.23
2022-11-25T04:53:19.664Z,8.30
2022-11-25T05:00:06.781Z,8.80
2022-11-25T05:03:16.206Z,8.93
2022-11-25T05:06:31.145Z,8.30
2022-11-25T05:09:32.965Z,8.40
2022-11-25T05:12:48.223Z,9.05
2022-11-25T05:15:49.853Z,8.38
2022-11-25T05:19:04.500Z,8.68
2022-11-25T05:22:09.797Z,9.25
2022-11-25T05:25:24.208Z,8.00
2022-11-25T05:28:39.443Z,8.60
2022-11-25T05:31:54.198Z,9.35
2022-11-25T05:35:02.285Z,8.90
2022-11-25T05:38:10.877Z,9.35
2022-11-25T05:41:22.281Z,9.40
2022-11-25T05:44:49.463Z,8.05
2022-11-25T05:51:39.645Z,9.10
2022-11-25T05:54:57.538Z,10.85
2022-11-25T05:58:06.367Z,12.27
2022-11-25T06:01:16.900Z,14.23
2022-11-25T06:08:32.257Z,9.65
2022-11-25T06:11:47.246Z,11.12
2022-11-25T06:15:02.241Z,9.17
2022-11-25T06:18:12.137Z,9.40
2022-11-25T06:21:27.298Z,8.85
2022-11-25T06:24:29.061Z,8.20
2022-11-25T06:28:11.259Z,8.43
2022-11-25T06:31:13.360Z,8.37
2022-11-25T06:34:31.266Z,8.38
2022-11-25T06:37:33.615Z,9.30
2022-11-25T06:41:11.325Z,8.93
2022-11-25T06:48:39.735Z,9.17
2022-11-25T06:56:34.698Z,9.65
2022-11-25T07:07:48.395Z,8.03
2022-11-25T07:15:30.593Z,12.20
2022-11-25T07:19:06.648Z,12.50
2022-11-25T07:23:16.040Z,12.00
2022-11-25T07:31:22.173Z,11.90
2022-11-25T07:46:16.025Z,12.37
2022-11-25T07:58:19.745Z,11.38
2022-11-25T08:06:50.126Z,11.03
2022-11-25T08:33:55.519Z,13.05
2022-11-25T08:48:11.790Z,9.35
2022-11-25T08:55:52.148Z,9.68
2022-11-25T08:59:49.891Z,9.68
2022-11-25T09:07:17.551Z,10.63
2022-11-25T09:10:58.334Z,11.45
2022-11-25T09:14:39.793Z,10.98
2022-11-25T09:22:17.189Z,14.47
2022-11-25T09:29:32.888Z,14.65
2022-11-25T09:36:47.687Z,14.05
2022-11-25T09:52:06.316Z,13.55
2022-11-25T10:07:12.413Z,13.38
2022-11-25T10:11:04.872Z,13.95
2022-11-25T11:37:39.536Z,11.43
2022-11-25T12:27:44.826Z,7.75
2022-11-25T12:36:03.816Z,9.50
2022-11-25T12:39:55.088Z,9.05
2022-11-25T13:21:11.573Z,9.05
2022-11-25T13:25:12.095Z,8.07
2022-11-25T13:50:41.965Z,4.83
2022-11-25T13:54:38.462Z,4.78
2022-11-25T13:58:31.415Z,4.70
2022-11-25T14:24:48.446Z,5.75
2022-11-25T14:28:48.391Z,5.57
2022-11-25T14:36:20.292Z,5.32
2022-11-25T14:44:04.626Z,5.93
2022-11-25T14:47:22.232Z,6.30
2022-11-25T14:50:35.497Z,6.50
2022-11-25T14:53:53.247Z,7.28
2022-11-25T14:57:09.343Z,7.90
2022-11-25T15:00:23.449Z,7.65
2022-11-25T15:03:34.071Z,6.43
2022-11-25T15:06:49.326Z,6.53
2022-11-25T15:11:01.977Z,7.70
2022-11-25T15:30:19.417Z,10.80
2022-11-25T16:04:27.398Z,13.63
2022-11-25T16:08:20.502Z,14.00
2022-11-25T16:19:49.401Z,12.20
2022-11-25T16:30:47.900Z,13.00
2022-11-25T16:34:15.572Z,12.90
2022-11-25T17:04:31.384Z,14.30
2022-11-25T17:16:12.613Z,13.53
2022-11-25T17:19:28.159Z,14.13
2022-11-25T17:23:10.227Z,14.05
2022-11-25T17:30:38.396Z,14.20
2022-11-25T17:33:50.497Z,13.67
2022-11-25T17:37:02.245Z,15.53
2022-11-25T17:40:13.119Z,14.15
2022-11-25T17:43:30.356Z,14.18
2022-11-25T17:46:49.342Z,14.15
2022-11-25T17:50:42.805Z,14.47
2022-11-25T17:58:36.095Z,13.27
2022-11-25T18:06:58.514Z,14.95
2022-11-25T18:54:10.462Z,13.20
2022-11-25T18:57:41.118Z,12.05
2022-11-25T19:08:48.703Z,12.83
2022-11-25T19:20:33.938Z,13.20
2022-11-25T19:28:36.403Z,12.37
2022-11-25T19:36:53.651Z,13.45
2022-11-25T19:40:22.330Z,13.07
2022-11-25T19:48:19.108Z,13.90
2022-11-25T19:55:56.905Z,12.98
2022-11-25T19:59:37.553Z,12.98
2022-11-25T20:03:47.558Z,13.82
2022-11-25T20:10:39.337Z,13.23
2022-11-25T20:13:52.542Z,11.38
2022-11-25T20:17:06.231Z,12.45
2022-11-25T20:21:05.202Z,14.25
2022-11-25T20:28:30.735Z,13.75
2022-11-25T20:31:42.309Z,13.60
2022-11-25T20:43:11.457Z,14.33
2022-11-25T20:46:35.439Z,14.55
2022-11-25T20:53:56.697Z,12.57
2022-11-25T20:57:13.080Z,12.68
2022-11-25T21:00:32.418Z,12.00
2022-11-25T21:03:52.617Z,12.52
2022-11-25T21:07:20.798Z,13.05
2022-11-25T21:10:54.077Z,12.70
2022-11-25T21:14:35.481Z,11.57
2022-11-25T21:18:17.696Z,12.67
2022-11-25T21:21:37.402Z,12.25
2022-11-25T21:24:54.840Z,15.00
2022-11-25T21:28:03.609Z,12.75
2022-11-25T21:31:42.718Z,15.00
2022-11-25T21:35:11.801Z,12.60
2022-11-25T21:39:06.578Z,14.50
2022-11-25T21:43:22.035Z,14.13
2022-11-25T21:47:36.363Z,12.30
2022-11-25T21:55:38.632Z,13.83
2022-11-25T21:59:01.716Z,12.77
2022-11-25T22:02:44.456Z,14.07
2022-11-25T22:06:41.922Z,14.50
2022-11-25T22:10:12.289Z,14.05
2022-11-25T22:17:50.639Z,11.35
2022-11-25T22:29:06.503Z,13.18
2022-11-25T22:33:05.226Z,12.03
2022-11-25T22:36:37.794Z,12.98
2022-11-25T22:39:53.826Z,14.40
2022-11-25T22:43:20.625Z,12.75
2022-11-25T22:46:54.330Z,13.60
2022-11-25T22:50:21.918Z,13.97
2022-11-25T22:53:43.742Z,12.77
2022-11-25T23:01:06.543Z,11.68
2022-11-25T23:04:26.411Z,12.60
2022-11-25T23:07:41.491Z,12.97
2022-11-25T23:10:56.564Z,12.00
2022-11-25T23:45:53.725Z,13.13
